Time;durP1;ratioP1;P1;durP2;ratioP2;P2;SDS_P1;SDS_P2;PMS_P1;PMS_P2;Temp;Humidity;BMP_temperature;BMP_pressure;BME280_temperature;BME280_humidity;BME280_pressure;Samples;Min_cycle;Max_cycle;Signal;HPM_P1;HPM_P2
2021/12/19 00:02:32;;;;;;;1.30;1.10;;;6.50;1.00;;;;;;5032249;28;20452;-72
2021/12/19 00:10:31;;;;;;;1.33;1.23;;;6.60;1.00;;;;;;5023049;28;20452;-72
2021/12/19 00:13:00;;;;;;;0.80;0.60;;;6.60;1.00;;;;;;5033486;28;20442;-73
2021/12/19 00:15:28;;;;;;;1.17;1.03;;;6.60;1.00;;;;;;5032965;28;20475;-73
2021/12/19 00:17:56;;;;;;;0.50;0.10;;;6.70;1.00;;;;;;5031843;28;20445;-71
2021/12/19 00:20:24;;;;;;;1.03;1.03;;;6.70;1.00;;;;;;5031542;28;20489;-72
2021/12/19 00:23:13;;;;;;;0.50;0.10;;;6.80;1.00;;;;;;5017532;28;20433;-73
2021/12/19 00:25:41;;;;;;;1.73;1.07;;;6.80;1.00;;;;;;5032654;28;21015;-71
2021/12/19 00:28:10;;;;;;;0.50;0.10;;;6.80;1.00;;;;;;5036194;28;20451;-71
2021/12/19 00:30:38;;;;;;;0.50;0.10;;;6.80;1.00;;;;;;5035966;28;20437;-71
2021/12/19 00:33:06;;;;;;;3.20;2.93;;;6.80;1.00;;;;;;5034066;28;20831;-71
2021/12/19 00:35:34;;;;;;;0.50;0.23;;;6.80;1.00;;;;;;5034296;28;20524;-71
2021/12/19 00:38:02;;;;;;;0.50;0.10;;;6.70;1.00;;;;;;5034024;28;20450;-72
2021/12/19 00:40:30;;;;;;;14.20;13.60;;;6.70;1.00;;;;;;5015463;28;20492;-71
2021/12/19 00:43:04;;;;;;;0.50;0.10;;;6.80;1.00;;;;;;5015197;28;20454;-71
2021/12/19 00:45:35;;;;;;;0.50;0.10;;;6.80;1.00;;;;;;5014897;28;20469;-70
2021/12/19 00:48:06;;;;;;;0.50;0.20;;;6.80;1.00;;;;;;5015273;28;20451;-71
2021/12/19 00:50:36;;;;;;;0.50;0.10;;;6.80;1.00;;;;;;5015373;28;20955;-71
2021/12/19 00:53:04;;;;;;;0.50;0.10;;;6.80;1.00;;;;;;5022098;28;20449;-72
2021/12/19 00:55:32;;;;;;;0.50;0.10;;;6.80;1.00;;;;;;5034930;28;20474;-72
2021/12/19 00:58:00;;;;;;;0.50;0.10;;;6.80;1.00;;;;;;5035151;28;20450;-72
2021/12/19 01:00:33;;;;;;;0.50;0.10;;;6.90;1.00;;;;;;5038457;28;20556;-72
2021/12/19 01:03:02;;;;;;;0.50;0.10;;;6.90;1.00;;;;;;5036398;28;20504;-72
2021/12/19 01:05:33;;;;;;;0.50;0.10;;;7.00;1.00;;;;;;5035644;28;20465;-72
2021/12/19 01:08:01;;;;;;;0.50;0.10;;;7.00;1.00;;;;;;5035342;28;20540;-71
2021/12/19 01:10:29;;;;;;;0.50;0.10;;;7.10;1.00;;;;;;5035823;28;20448;-71
2021/12/19 01:12:57;;;;;;;0.50;0.10;;;7.10;1.00;;;;;;5036385;28;20561;-72
2021/12/19 01:15:25;;;;;;;0.50;0.10;;;7.20;1.00;;;;;;5035521;28;20564;-72
2021/12/19 01:17:53;;;;;;;0.50;0.10;;;;;;;;;;5035555;28;20446;-71
2021/12/19 01:20:25;;;;;;;0.50;0.10;;;7.20;1.00;;;;;;5035274;28;20485;-72
2021/12/19 01:22:54;;;;;;;0.50;0.10;;;7.20;1.00;;;;;;5035012;28;20476;-71
2021/12/19 01:25:22;;;;;;;0.50;0.10;;;7.20;1.00;;;;;;5034947;28;20505;-71
2021/12/19 01:27:50;;;;;;;0.50;0.10;;;7.20;1.00;;;;;;5035184;28;21046;-71
2021/12/19 01:30:18;;;;;;;0.50;0.10;;;7.20;1.00;;;;;;5035344;28;20450;-71
2021/12/19 01:32:47;;;;;;;0.50;0.20;;;7.20;1.00;;;;;;5035030;28;20468;-72
2021/12/19 01:35:18;;;;;;;0.50;0.20;;;7.20;1.00;;;;;;5026823;28;20470;-71
2021/12/19 01:37:48;;;;;;;0.50;0.10;;;7.20;1.00;;;;;;5034746;28;20456;-72
2021/12/19 01:40:18;;;;;;;0.50;0.10;;;7.20;1.00;;;;;;5034492;28;20865;-72
2021/12/19 01:42:48;;;;;;;0.50;0.10;;;7.20;1.00;;;;;;5034715;28;20457;-71
2021/12/19 01:45:23;;;;;;;0.50;0.10;;;7.30;1.00;;;;;;5034430;28;20470;-71
2021/12/19 01:47:51;;;;;;;0.50;0.10;;;7.30;1.00;;;;;;5034158;28;20440;-72
2021/12/19 01:50:19;;;;;;;0.50;0.10;;;7.30;1.00;;;;;;5029440;28;20982;-71
2021/12/19 01:52:50;;;;;;;0.50;0.10;;;7.30;1.00;;;;;;5020669;28;20454;-71
2021/12/19 01:55:18;;;;;;;0.50;0.10;;;7.30;1.00;;;;;;5024955;28;20469;-72
2021/12/19 01:57:47;;;;;;;0.50;0.10;;;7.30;1.00;;;;;;5034341;28;20813;-71
2021/12/19 02:00:21;;;;;;;0.50;0.10;;;7.30;1.00;;;;;;5041790;28;20833;-72
2021/12/19 02:02:49;;;;;;;0.50;0.10;;;7.30;1.00;;;;;;5042863;28;20451;-70
2021/12/19 02:05:17;;;;;;;0.50;0.10;;;7.30;1.00;;;;;;5043562;28;20509;-73
2021/12/19 02:07:46;;;;;;;0.50;0.10;;;7.30;1.00;;;;;;5038935;28;20807;-71
2021/12/19 02:10:19;;;;;;;0.50;0.10;;;7.40;1.00;;;;;;5033396;28;20538;-70
2021/12/19 02:12:48;;;;;;;0.50;0.10;;;7.40;1.00;;;;;;5033309;28;20809;-71
2021/12/19 02:15:19;;;;;;;0.50;0.17;;;7.30;1.00;;;;;;5032580;28;20469;-71
2021/12/19 02:17:48;;;;;;;0.50;0.10;;;7.40;1.00;;;;;;5033472;28;20454;-72
2021/12/19 02:20:18;;;;;;;0.50;0.10;;;7.40;1.00;;;;;;5033191;28;21053;-71
2021/12/19 02:22:46;;;;;;;0.50;0.10;;;7.30;1.00;;;;;;5042993;28;20537;-71
2021/12/19 02:25:15;;;;;;;0.50;0.10;;;7.30;1.00;;;;;;5042401;28;20489;-71
2021/12/19 02:27:43;;;;;;;0.50;0.10;;;7.30;1.00;;;;;;5041485;28;20459;-72
2021/12/19 02:30:13;;;;;;;0.50;0.10;;;7.30;1.00;;;;;;5034106;28;20450;-72
2021/12/19 02:32:41;;;;;;;0.50;0.10;;;;;;;;;;5035085;28;20457;-70
2021/12/19 02:35:14;;;;;;;3.40;2.33;;;7.40;1.00;;;;;;5022628;28;20479;-71
2021/12/19 02:38:11;;;;;;;0.50;0.10;;;7.40;1.00;;;;;;5013399;28;20431;-70
2021/12/19 02:48:56;;;;;;;0.50;0.10;;;7.30;1.00;;;;;;5032202;28;20445;-72
2021/12/19 02:51:29;;;;;;;0.50;0.10;;;7.30;1.00;;;;;;5031343;28;20446;-71
2021/12/19 02:54:00;;;;;;;0.50;0.10;;;7.40;1.00;;;;;;5032921;28;20545;-71
2021/12/19 02:56:29;;;;;;;0.50;0.10;;;7.40;1.00;;;;;;5032876;28;20446;-72
2021/12/19 02:58:56;;;;;;;0.50;0.10;;;7.40;1.00;;;;;;5033445;28;20450;-71
2021/12/19 03:01:25;;;;;;;0.50;0.10;;;7.40;1.00;;;;;;5034705;28;20480;-71
2021/12/19 03:03:52;;;;;;;0.50;0.10;;;7.40;1.00;;;;;;5033707;28;20465;-70
2021/12/19 03:06:21;;;;;;;0.50;0.10;;;7.40;1.00;;;;;;5032412;28;20805;-72
2021/12/19 03:08:51;;;;;;;0.50;0.10;;;7.40;1.00;;;;;;5032409;28;20464;-72
2021/12/19 03:19:40;;;;;;;0.50;0.10;;;7.40;1.00;;;;;;5012497;28;20475;-71
2021/12/19 03:22:08;;;;;;;0.50;0.10;;;7.40;1.00;;;;;;5024708;28;20484;-72
2021/12/19 03:24:36;;;;;;;0.50;0.10;;;7.40;1.00;;;;;;5031533;28;20488;-71
2021/12/19 03:27:05;;;;;;;0.50;0.10;;;7.40;1.00;;;;;;5034485;28;20439;-72
2021/12/19 03:29:33;;;;;;;2.63;2.53;;;7.40;1.00;;;;;;5034575;28;20450;-71
2021/12/19 03:32:01;;;;;;;0.50;0.10;;;7.40;1.00;;;;;;5029392;28;20447;-71
2021/12/19 03:34:29;;;;;;;0.50;0.10;;;7.30;1.00;;;;;;5030411;28;20464;-71
2021/12/19 03:36:57;;;;;;;0.50;0.10;;;7.40;1.00;;;;;;5031104;28;20445;-70
2021/12/19 03:39:36;;;;;;;0.50;0.10;;;7.40;1.00;;;;;;5030972;28;20546;-71
2021/12/19 03:42:06;;;;;;;0.50;0.10;;;7.40;1.00;;;;;;5032200;28;20513;-71
2021/12/19 03:44:34;;;;;;;0.50;0.10;;;7.50;1.00;;;;;;5031619;28;20489;-71
2021/12/19 03:47:01;;;;;;;0.50;0.10;;;7.40;1.00;;;;;;5031559;28;20465;-71
2021/12/19 03:49:29;;;;;;;0.50;0.10;;;7.40;1.00;;;;;;5030333;28;20467;-71
2021/12/19 03:51:57;;;;;;;0.50;0.10;;;7.50;1.00;;;;;;5031661;28;20529;-71
2021/12/19 03:54:25;;;;;;;0.50;0.10;;;7.40;1.00;;;;;;5031487;28;20473;-71
2021/12/19 03:56:53;;;;;;;0.50;0.10;;;7.40;1.00;;;;;;5031087;28;20450;-71
2021/12/19 03:59:22;;;;;;;0.50;0.10;;;7.50;1.00;;;;;;5018569;28;20457;-71
2021/12/19 04:01:52;;;;;;;0.50;0.10;;;7.50;1.00;;;;;;5014324;28;20479;-71
2021/12/19 04:04:20;;;;;;;0.50;0.10;;;7.50;1.00;;;;;;5015469;28;20471;-71
2021/12/19 04:06:48;;;;;;;0.50;0.10;;;7.40;1.00;;;;;;5016686;28;20453;-71
2021/12/19 04:09:16;;;;;;;0.50;0.10;;;7.50;1.00;;;;;;5028973;28;20455;-71
2021/12/19 04:11:44;;;;;;;0.50;0.10;;;7.40;1.00;;;;;;5035638;28;20446;-71
2021/12/19 04:14:11;;;;;;;0.50;0.10;;;7.40;1.00;;;;;;5035192;28;20465;-70
2021/12/19 04:16:42;;;;;;;1.43;0.93;;;7.40;1.00;;;;;;5035415;28;20506;-72
2021/12/19 04:19:10;;;;;;;0.50;0.10;;;7.40;1.00;;;;;;5023940;28;20465;-71
2021/12/19 04:21:38;;;;;;;0.50;0.10;;;7.40;1.00;;;;;;5015602;28;20483;-71
2021/12/19 04:24:07;;;;;;;0.50;0.10;;;7.40;1.00;;;;;;5015402;28;21049;-71
2021/12/19 04:26:35;;;;;;;0.50;0.10;;;7.40;1.00;;;;;;5024743;28;20484;-71
2021/12/19 04:29:03;;;;;;;0.50;0.10;;;7.50;1.00;;;;;;5034363;28;20458;-71
2021/12/19 04:31:31;;;;;;;0.50;0.10;;;5.80;1.00;;;;;;5035219;28;20450;-71
2021/12/19 04:34:00;;;;;;;0.50;0.10;;;7.50;1.00;;;;;;5035023;28;20952;-71
2021/12/19 04:36:33;;;;;;;0.50;0.10;;;7.50;1.00;;;;;;5035079;28;20441;-71
2021/12/19 04:39:26;;;;;;;0.50;0.10;;;7.50;1.00;;;;;;5035010;28;20458;-71
2021/12/19 04:50:55;;;;;;;0.50;0.10;;;7.40;1.00;;;;;;5034567;28;20462;-72
2021/12/19 04:53:32;;;;;;;0.50;0.10;;;7.40;1.00;;;;;;5022007;28;20455;-70
2021/12/19 04:56:25;;;;;;;0.50;0.10;;;7.50;1.00;;;;;;5034375;28;20465;-71
2021/12/19 05:02:02;;;;;;;0.50;0.10;;;7.50;1.00;;;;;;5035254;28;20512;-71
2021/12/19 05:15:50;;;;;;;0.50;0.10;;;7.50;1.00;;;;;;5034677;28;20470;-71
2021/12/19 05:18:21;;;;;;;0.50;0.10;;;7.50;1.00;;;;;;5035131;28;20825;-71
2021/12/19 05:20:55;;;;;;;0.50;0.10;;;7.50;1.00;;;;;;5035035;28;20489;-70
2021/12/19 05:23:33;;;;;;;0.50;0.10;;;7.50;1.00;;;;;;5034372;28;20443;-71
2021/12/19 05:26:02;;;;;;;0.50;0.10;;;7.50;1.00;;;;;;5034115;28;20509;-70
2021/12/19 05:28:30;;;;;;;0.50;0.10;;;7.50;1.00;;;;;;5014441;28;20431;-72
2021/12/19 05:30:58;;;;;;;0.50;0.10;;;7.40;1.00;;;;;;5014278;28;20479;-71
2021/12/19 05:33:26;;;;;;;0.50;0.10;;;7.50;1.00;;;;;;5014292;28;20458;-71
2021/12/19 05:36:12;;;;;;;0.50;0.10;;;7.40;1.00;;;;;;5014682;28;20987;-71
2021/12/19 05:46:58;;;;;;;0.50;0.10;;;7.50;1.00;;;;;;5025100;28;21036;-71
2021/12/19 05:49:26;;;;;;;0.50;0.10;;;7.50;1.00;;;;;;5013990;28;20455;-71
2021/12/19 05:51:54;;;;;;;0.50;0.10;;;7.50;1.00;;;;;;5014048;28;20480;-71
2021/12/19 05:54:24;;;;;;;0.50;0.10;;;7.50;1.00;;;;;;5013779;28;20463;-71
2021/12/19 05:56:52;;;;;;;0.50;0.10;;;7.50;1.00;;;;;;5025451;28;20454;-70
2021/12/19 05:59:20;;;;;;;0.50;0.10;;;7.50;1.00;;;;;;5033919;28;20457;-71
2021/12/19 06:01:48;;;;;;;0.50;0.10;;;7.50;1.00;;;;;;5033840;28;20589;-71
2021/12/19 06:04:16;;;;;;;0.50;0.10;;;7.50;1.00;;;;;;5033402;28;20469;-72
2021/12/19 06:06:46;;;;;;;0.50;0.10;;;7.50;1.00;;;;;;5032474;28;20461;-72
2021/12/19 06:09:14;;;;;;;0.50;0.10;;;7.40;1.00;;;;;;5033429;28;20446;-71
2021/12/19 06:11:43;;;;;;;0.50;0.10;;;7.40;1.00;;;;;;5033590;28;20431;-72
2021/12/19 06:14:11;;;;;;;0.50;0.10;;;7.40;1.00;;;;;;5032902;28;20478;-72
2021/12/19 06:16:39;;;;;;;0.50;0.10;;;7.40;1.00;;;;;;5032284;28;20983;-72
2021/12/19 06:19:07;;;;;;;0.50;0.20;;;7.40;1.00;;;;;;5033240;28;20450;-71
2021/12/19 06:21:35;;;;;;;0.50;0.10;;;7.40;1.00;;;;;;5032931;28;20456;-70
2021/12/19 06:24:03;;;;;;;0.50;0.10;;;7.40;1.00;;;;;;5033202;28;20561;-70
2021/12/19 06:26:33;;;;;;;0.50;0.10;;;7.40;1.00;;;;;;5034482;28;20544;-72
2021/12/19 06:29:03;;;;;;;0.50;0.10;;;7.40;1.00;;;;;;5033763;28;20450;-72
2021/12/19 06:31:31;;;;;;;0.50;0.10;;;7.40;1.00;;;;;;5033102;28;20458;-72
2021/12/19 06:33:59;;;;;;;0.50;0.10;;;7.40;1.00;;;;;;5033482;28;20474;-71
2021/12/19 06:36:28;;;;;;;0.50;0.10;;;7.40;1.00;;;;;;5032961;28;20944;-71
2021/12/19 06:38:56;;;;;;;0.50;0.10;;;7.40;1.00;;;;;;5033004;28;20444;-72
2021/12/19 06:41:24;;;;;;;0.50;0.10;;;7.40;1.00;;;;;;5033092;28;20442;-72
2021/12/19 06:43:51;;;;;;;0.50;0.10;;;7.50;1.00;;;;;;5032928;28;20486;-71
2021/12/19 06:46:21;;;;;;;0.50;0.10;;;7.50;1.00;;;;;;5033654;28;20956;-71
2021/12/19 06:48:48;;;;;;;0.50;0.10;;;7.50;1.00;;;;;;5033162;28;20447;-71
2021/12/19 06:51:16;;;;;;;0.50;0.10;;;7.50;1.00;;;;;;5033139;28;20447;-71
2021/12/19 06:53:44;;;;;;;0.50;0.10;;;7.50;1.00;;;;;;5033196;28;20445;-70
2021/12/19 06:56:12;;;;;;;0.50;0.10;;;7.50;1.00;;;;;;5033296;28;20460;-71
2021/12/19 06:58:40;;;;;;;0.50;0.10;;;7.50;1.00;;;;;;5034015;28;20450;-71
2021/12/19 07:01:08;;;;;;;0.50;0.10;;;7.50;1.00;;;;;;5033785;28;20446;-71
2021/12/19 07:03:37;;;;;;;0.87;0.87;;;7.50;1.00;;;;;;5033390;28;20486;-71
2021/12/19 07:06:05;;;;;;;0.50;0.10;;;7.50;1.00;;;;;;5032141;28;20462;-71
2021/12/19 07:08:33;;;;;;;0.50;0.10;;;7.50;1.00;;;;;;5033003;28;20446;-71
2021/12/19 07:11:01;;;;;;;0.50;0.10;;;7.50;1.00;;;;;;5032531;28;20953;-72
2021/12/19 07:13:29;;;;;;;0.50;0.10;;;7.50;1.00;;;;;;5032606;28;20443;-71
2021/12/19 07:15:57;;;;;;;0.50;0.10;;;7.50;1.00;;;;;;5032225;28;20475;-71
2021/12/19 07:18:25;;;;;;;0.50;0.10;;;7.50;1.00;;;;;;5032649;28;20532;-71
2021/12/19 07:20:54;;;;;;;0.50;0.10;;;7.50;1.00;;;;;;5032664;28;20445;-72
2021/12/19 07:23:22;;;;;;;0.50;0.10;;;7.50;1.00;;;;;;5032765;28;20482;-72
2021/12/19 07:25:51;;;;;;;0.50;0.10;;;7.50;1.00;;;;;;5032342;28;20992;-71
2021/12/19 07:28:19;;;;;;;0.50;0.10;;;7.50;1.00;;;;;;5032661;28;20442;-71
2021/12/19 07:30:48;;;;;;;0.50;0.10;;;7.40;1.00;;;;;;5032283;28;20500;-70
2021/12/19 07:33:17;;;;;;;0.50;0.10;;;7.40;1.00;;;;;;5032343;28;20956;-71
2021/12/19 07:35:48;;;;;;;0.50;0.10;;;7.40;1.00;;;;;;5034024;28;20469;-71
2021/12/19 07:38:28;;;;;;;0.50;0.10;;;7.40;1.00;;;;;;5036172;28;20469;-70
2021/12/19 07:40:58;;;;;;;0.50;0.10;;;7.40;1.00;;;;;;5036087;28;20462;-71
2021/12/19 07:43:26;;;;;;;0.50;0.10;;;7.40;1.00;;;;;;5036173;28;20489;-72
2021/12/19 07:45:55;;;;;;;0.60;0.10;;;7.40;1.00;;;;;;5036124;28;20501;-72
2021/12/19 07:48:23;;;;;;;0.50;0.10;;;7.40;1.00;;;;;;5036127;28;20933;-71
2021/12/19 07:50:51;;;;;;;0.50;0.10;;;7.40;1.00;;;;;;5035817;28;20989;-71
2021/12/19 07:53:19;;;;;;;0.50;0.10;;;7.40;1.00;;;;;;5036254;28;20787;-71
2021/12/19 07:55:48;;;;;;;0.50;0.10;;;7.40;1.00;;;;;;5035781;28;20477;-72
2021/12/19 07:58:16;;;;;;;0.50;0.10;;;7.40;1.00;;;;;;5037258;28;20453;-72
2021/12/19 08:00:44;;;;;;;0.50;0.10;;;7.50;1.00;;;;;;5038154;28;20458;-71
2021/12/19 08:03:12;;;;;;;0.50;0.10;;;7.50;1.00;;;;;;5037033;28;20542;-72
2021/12/19 08:05:40;;;;;;;0.50;0.10;;;7.50;1.00;;;;;;5037783;28;20466;-72
2021/12/19 08:08:10;;;;;;;0.50;0.10;;;7.50;1.00;;;;;;5036906;28;20462;-72
2021/12/19 08:13:25;;;;;;;0.60;0.40;;;7.50;1.00;;;;;;5036493;28;20437;-72
2021/12/19 08:15:53;;;;;;;0.50;0.10;;;7.50;1.00;;;;;;5035667;28;20473;-71
2021/12/19 08:18:21;;;;;;;0.50;0.10;;;7.50;1.00;;;;;;5035597;28;21183;-72
2021/12/19 08:20:48;;;;;;;0.50;0.10;;;7.50;1.00;;;;;;5036271;28;20458;-71
2021/12/19 08:23:16;;;;;;;3.17;2.97;;;7.40;1.00;;;;;;5041847;28;20572;-72
2021/12/19 08:25:44;;;;;;;0.50;0.10;;;7.50;1.00;;;;;;5038772;28;20510;-72
2021/12/19 08:28:12;;;;;;;0.50;0.20;;;7.40;1.00;;;;;;5039517;28;21040;-72
2021/12/19 08:30:41;;;;;;;0.50;0.10;;;7.40;1.00;;;;;;5041729;28;20452;-72
2021/12/19 08:33:09;;;;;;;0.50;0.10;;;7.40;1.00;;;;;;5037208;28;20449;-72
2021/12/19 08:35:37;;;;;;;0.50;0.10;;;7.50;1.00;;;;;;5036352;28;20477;-72
2021/12/19 08:38:05;;;;;;;0.63;0.63;;;7.50;1.00;;;;;;5035319;28;20458;-72
2021/12/19 08:40:33;;;;;;;0.50;0.10;;;7.60;1.00;;;;;;5035854;28;20455;-72
2021/12/19 08:43:01;;;;;;;1.17;1.17;;;7.50;1.00;;;;;;5038987;28;20911;-72
2021/12/19 08:45:29;;;;;;;0.50;0.10;;;7.50;1.00;;;;;;5040584;28;20461;-71
2021/12/19 08:47:59;;;;;;;0.50;0.10;;;7.50;1.00;;;;;;5040441;28;20458;-72
2021/12/19 08:50:27;;;;;;;0.50;0.30;;;7.50;1.00;;;;;;5041508;28;20946;-72
2021/12/19 08:52:55;;;;;;;0.50;0.10;;;7.50;1.00;;;;;;5036594;28;20450;-72
2021/12/19 08:55:23;;;;;;;0.50;0.10;;;7.50;1.00;;;;;;5035762;28;20474;-72
2021/12/19 08:57:51;;;;;;;0.50;0.10;;;7.50;1.00;;;;;;5034746;28;20456;-72
2021/12/19 09:00:20;;;;;;;0.50;0.10;;;7.50;1.00;;;;;;5035179;28;20447;-72
2021/12/19 09:02:51;;;;;;;0.50;0.10;;;7.60;1.00;;;;;;5035145;28;20461;-71
2021/12/19 09:05:21;;;;;;;0.50;0.10;;;7.60;1.00;;;;;;5034702;28;20454;-72
2021/12/19 09:07:51;;;;;;;0.50;0.10;;;7.60;1.00;;;;;;5031187;28;20450;-72
2021/12/19 09:10:20;;;;;;;0.50;0.10;;;7.70;1.00;;;;;;5014852;28;20453;-72
2021/12/19 09:12:48;;;;;;;0.50;0.10;;;7.70;1.00;;;;;;5014198;28;20926;-72
2021/12/19 09:15:17;;;;;;;0.53;0.27;;;7.80;1.00;;;;;;5034249;28;20789;-71
2021/12/19 09:17:44;;;;;;;0.50;0.10;;;7.80;1.00;;;;;;5035247;28;20464;-72
2021/12/19 09:20:14;;;;;;;1.37;1.27;;;7.80;1.00;;;;;;5033787;28;20465;-72
2021/12/19 09:22:43;;;;;;;0.50;0.10;;;7.90;1.00;;;;;;5033276;28;20987;-72
2021/12/19 09:25:18;;;;;;;0.50;0.10;;;7.90;1.00;;;;;;5034314;28;20491;-72
2021/12/19 09:27:45;;;;;;;0.50;0.10;;;7.90;1.00;;;;;;5034366;28;20450;-72
2021/12/19 09:30:14;;;;;;;0.50;0.10;;;8.00;1.00;;;;;;5034439;28;20821;-72
2021/12/19 09:32:42;;;;;;;0.50;0.10;;;8.10;1.00;;;;;;5034360;28;20446;-72
2021/12/19 09:35:10;;;;;;;0.50;0.10;;;8.10;1.00;;;;;;5033975;28;20468;-72
2021/12/19 09:37:38;;;;;;;0.50;0.10;;;8.10;1.00;;;;;;5033822;28;20454;-72
2021/12/19 09:40:11;;;;;;;0.50;0.10;;;8.10;1.00;;;;;;5033937;28;20446;-71
2021/12/19 09:42:47;;;;;;;0.50;0.10;;;8.20;1.00;;;;;;5034376;28;20945;-72
2021/12/19 09:45:15;;;;;;;0.50;0.10;;;8.20;1.00;;;;;;5033425;28;20486;-72
2021/12/19 09:47:44;;;;;;;0.50;0.10;;;8.20;1.00;;;;;;5033898;28;20485;-71
2021/12/19 09:50:12;;;;;;;0.50;0.10;;;8.20;1.00;;;;;;5030459;28;20459;-72
2021/12/19 09:52:40;;;;;;;0.50;0.20;;;8.20;1.00;;;;;;5030321;28;20484;-73
2021/12/19 09:55:10;;;;;;;0.50;0.10;;;8.30;1.00;;;;;;5030169;28;20469;-72
2021/12/19 09:57:38;;;;;;;0.50;0.10;;;8.40;1.00;;;;;;5033908;28;20446;-72
2021/12/19 10:00:08;;;;;;;0.50;0.10;;;8.40;1.00;;;;;;5033974;28;20461;-72
2021/12/19 10:02:36;;;;;;;0.50;0.10;;;;;;;;;;5035570;28;20439;-71
2021/12/19 10:05:16;;;;;;;0.50;0.10;;;8.40;1.00;;;;;;5033833;28;20523;-71
2021/12/19 10:07:50;;;;;;;0.50;0.10;;;8.40;1.00;;;;;;5033694;28;20797;-72
2021/12/19 10:10:27;;;;;;;0.50;0.10;;;8.40;1.00;;;;;;5034019;28;20460;-72
2021/12/19 10:12:58;;;;;;;0.50;0.10;;;8.40;1.00;;;;;;5031460;28;20545;-71
2021/12/19 10:15:33;;;;;;;0.50;0.13;;;8.50;1.00;;;;;;5032474;28;20533;-71
2021/12/19 10:18:05;;;;;;;0.50;0.10;;;7.00;1.00;;;;;;5032459;28;20454;-70
2021/12/19 10:20:48;;;;;;;0.50;0.10;;;8.60;1.00;;;;;;5034962;28;20473;-71
2021/12/19 10:23:19;;;;;;;0.50;0.20;;;8.60;1.00;;;;;;5032788;28;20443;-70
2021/12/19 10:25:58;;;;;;;0.50;0.10;;;8.60;1.00;;;;;;5033077;28;20479;-70
2021/12/19 10:28:27;;;;;;;0.50;0.10;;;8.60;1.00;;;;;;5033073;28;20499;-70
2021/12/19 10:30:56;;;;;;;0.50;0.10;;;8.70;1.00;;;;;;5032683;28;20443;-70
2021/12/19 10:33:31;;;;;;;0.50;0.10;;;8.70;1.00;;;;;;5033601;28;20442;-69
2021/12/19 10:36:01;;;;;;;0.50;0.10;;;8.80;1.00;;;;;;5033007;28;20496;-70
2021/12/19 10:38:33;;;;;;;0.50;0.10;;;8.80;1.00;;;;;;5032380;28;20451;-70
2021/12/19 10:41:06;;;;;;;0.50;0.20;;;8.80;1.00;;;;;;5032415;28;20439;-70
2021/12/19 10:43:35;;;;;;;0.50;0.10;;;8.90;1.00;;;;;;5032306;28;20435;-70
2021/12/19 10:46:06;;;;;;;0.50;0.10;;;8.90;1.00;;;;;;5024607;28;20497;-70
2021/12/19 10:48:37;;;;;;;0.60;0.30;;;9.00;1.00;;;;;;5026671;28;20830;-68
2021/12/19 10:51:07;;;;;;;0.50;0.10;;;9.10;1.00;;;;;;5032503;28;20445;-69
2021/12/19 10:53:38;;;;;;;0.50;0.10;;;9.10;1.00;;;;;;5032888;28;20443;-71
2021/12/19 10:56:11;;;;;;;0.50;0.10;;;9.00;1.00;;;;;;5031946;28;20661;-68
2021/12/19 10:58:45;;;;;;;0.60;0.10;;;9.00;1.00;;;;;;5031740;28;20541;-69
2021/12/19 11:01:19;;;;;;;0.57;0.20;;;8.90;1.00;;;;;;5032499;28;20437;-70
2021/12/19 11:04:00;;;;;;;0.70;0.63;;;8.80;1.00;;;;;;5031847;28;20469;-69
2021/12/19 11:06:34;;;;;;;0.50;0.10;;;8.80;1.00;;;;;;5018789;28;20498;-68
2021/12/19 11:09:12;;;;;;;0.50;0.10;;;8.70;1.00;;;;;;5031194;28;20456;-68
2021/12/19 11:11:53;;;;;;;0.50;0.10;;;8.70;1.00;;;;;;5031844;28;20446;-70
2021/12/19 11:14:24;;;;;;;0.50;0.10;;;8.70;1.00;;;;;;5031567;28;20469;-70
2021/12/19 11:16:56;;;;;;;0.50;0.20;;;8.70;1.00;;;;;;5031920;28;20542;-70
2021/12/19 11:19:24;;;;;;;0.50;0.20;;;8.60;1.00;;;;;;5031764;28;20427;-70
2021/12/19 11:22:15;;;;;;;2.40;1.63;;;8.60;1.00;;;;;;5031545;28;20450;-71
2021/12/19 11:24:43;;;;;;;0.50;0.17;;;8.50;1.00;;;;;;5031424;28;20483;-71
2021/12/19 11:27:12;;;;;;;1.80;1.70;;;8.50;1.00;;;;;;5028826;28;20481;-71
2021/12/19 11:29:42;;;;;;;11.30;5.40;;;8.50;1.00;;;;;;5025419;28;20999;-69
2021/12/19 11:32:18;;;;;;;0.53;0.10;;;8.30;1.00;;;;;;5033329;28;20443;-71
2021/12/19 11:34:59;;;;;;;1.67;1.23;;;8.30;1.00;;;;;;5028073;28;20477;-70
2021/12/19 11:37:30;;;;;;;0.57;0.37;;;8.30;1.00;;;;;;5033515;28;20453;-72
2021/12/19 11:39:59;;;;;;;2.43;2.33;;;8.20;1.00;;;;;;5032613;28;20468;-70
2021/12/19 11:42:34;;;;;;;4.00;2.63;;;8.30;1.00;;;;;;5032083;28;20527;-73
2021/12/19 11:45:27;;;;;;;0.80;0.20;;;8.40;1.00;;;;;;5028395;28;20493;-71
2021/12/19 11:48:00;;;;;;;0.50;0.10;;;8.40;1.00;;;;;;5012671;28;20523;-71
2021/12/19 11:50:30;;;;;;;1.57;1.47;;;8.50;1.00;;;;;;5030699;28;20967;-70
2021/12/19 11:53:00;;;;;;;4.40;2.10;;;8.60;1.00;;;;;;5031573;28;20885;-70
2021/12/19 11:55:31;;;;;;;0.50;0.10;;;8.60;1.00;;;;;;5031171;28;20459;-70
2021/12/19 11:58:22;;;;;;;0.50;0.10;;;8.70;1.00;;;;;;5026831;28;20443;-71
2021/12/19 12:00:55;;;;;;;0.50;0.20;;;8.80;1.00;;;;;;5031503;28;20448;-70
2021/12/19 12:03:39;;;;;;;1.03;0.77;;;9.00;1.00;;;;;;5031477;28;20475;-68
2021/12/19 12:06:33;;;;;;;0.67;0.50;;;8.90;1.00;;;;;;5031265;28;20902;-69
2021/12/19 12:09:07;;;;;;;0.70;0.50;;;8.90;1.00;;;;;;5022275;28;20458;-70
2021/12/19 12:11:37;;;;;;;0.57;0.10;;;8.90;1.00;;;;;;5031465;28;20445;-70
2021/12/19 12:14:33;;;;;;;0.50;0.10;;;9.20;1.00;;;;;;5031503;28;20532;-70
2021/12/19 12:17:05;;;;;;;0.50;0.10;;;9.20;1.00;;;;;;5017916;28;20455;-70
2021/12/19 12:19:39;;;;;;;0.60;0.10;;;9.30;1.00;;;;;;5028279;28;21035;-70
2021/12/19 12:22:35;;;;;;;0.60;0.10;;;9.40;1.00;;;;;;5023153;28;20453;-71
2021/12/19 12:25:31;;;;;;;0.60;0.10;;;9.50;1.00;;;;;;5031383;28;20937;-69
2021/12/19 12:28:05;;;;;;;1.57;0.83;;;9.60;1.00;;;;;;5014083;28;20444;-71
2021/12/19 12:30:39;;;;;;;0.60;0.20;;;9.60;1.00;;;;;;5036034;28;20454;-71
2021/12/19 12:33:11;;;;;;;0.60;0.10;;;9.40;1.00;;;;;;5034487;28;20530;-67
2021/12/19 12:35:40;;;;;;;0.60;0.10;;;9.70;1.00;;;;;;5029757;28;20466;-71
2021/12/19 12:38:10;;;;;;;0.60;0.10;;;9.90;1.00;;;;;;5034753;28;20449;-68
2021/12/19 12:40:50;;;;;;;0.60;0.10;;;9.90;1.00;;;;;;5021823;28;20451;-70
2021/12/19 12:43:20;;;;;;;0.60;0.10;;;9.80;1.00;;;;;;5016544;28;20550;-70
2021/12/19 12:46:09;;;;;;;0.60;0.10;;;9.80;1.00;;;;;;5017717;28;20488;-71
2021/12/19 12:48:43;;;;;;;0.60;0.10;;;9.70;1.00;;;;;;5022294;28;20823;-71
2021/12/19 12:51:13;;;;;;;0.60;0.10;;;9.70;1.00;;;;;;5035023;28;20446;-70
2021/12/19 12:53:46;;;;;;;0.53;0.10;;;9.70;1.00;;;;;;5035081;28;20435;-69
2021/12/19 12:56:18;;;;;;;0.50;0.10;;;9.70;1.00;;;;;;5036510;28;20445;-69
2021/12/19 12:58:48;;;;;;;0.60;0.10;;;9.70;1.00;;;;;;5036864;28;20478;-69
2021/12/19 13:01:25;;;;;;;0.60;0.10;;;;;;;;;;5017060;28;20452;-71
2021/12/19 13:04:14;;;;;;;0.60;0.10;;;9.70;1.00;;;;;;5015501;28;20430;-71
2021/12/19 13:07:02;;;;;;;0.60;0.10;;;;;;;;;;5014800;28;20484;-70
2021/12/19 13:09:33;;;;;;;0.60;0.10;;;9.80;1.00;;;;;;5018179;28;20459;-72
2021/12/19 13:12:08;;;;;;;0.60;0.10;;;9.80;1.00;;;;;;5035159;28;20515;-70
2021/12/19 13:14:39;;;;;;;0.60;0.10;;;9.90;1.00;;;;;;5034265;28;20455;-70
2021/12/19 13:17:12;;;;;;;0.60;0.10;;;9.90;1.00;;;;;;5034667;28;20438;-70
2021/12/19 13:19:50;;;;;;;0.60;0.10;;;9.90;1.00;;;;;;5030106;28;20470;-71
2021/12/19 13:22:21;;;;;;;0.50;0.10;;;9.90;1.00;;;;;;5014886;28;20442;-71
2021/12/19 13:24:50;;;;;;;0.60;0.10;;;9.80;1.00;;;;;;5023015;28;20490;-71
2021/12/19 13:27:21;;;;;;;0.50;0.10;;;9.80;1.00;;;;;;5033702;28;20482;-71
2021/12/19 13:30:18;;;;;;;0.50;0.10;;;9.90;1.00;;;;;;5033720;28;20451;-71
2021/12/19 13:32:51;;;;;;;0.60;0.10;;;9.90;1.00;;;;;;5010252;28;20526;-70
2021/12/19 13:35:26;;;;;;;0.60;0.20;;;9.90;1.00;;;;;;5033855;28;20463;-70
2021/12/19 13:38:01;;;;;;;0.50;0.10;;;9.90;1.00;;;;;;5034434;28;20466;-69
2021/12/19 13:40:31;;;;;;;0.60;0.10;;;9.90;1.00;;;;;;5033211;28;20454;-70
2021/12/19 13:43:04;;;;;;;0.60;0.10;;;9.80;1.00;;;;;;5033791;28;20489;-73
2021/12/19 13:45:38;;;;;;;0.60;0.10;;;9.80;1.00;;;;;;5031389;28;20500;-69
2021/12/19 13:48:11;;;;;;;0.50;0.10;;;9.70;1.00;;;;;;5034090;28;20443;-67
2021/12/19 13:50:43;;;;;;;0.60;0.10;;;9.70;1.00;;;;;;5033092;28;20455;-70
2021/12/19 13:53:14;;;;;;;0.57;0.10;;;9.70;1.00;;;;;;5033828;28;20493;-69
2021/12/19 13:55:44;;;;;;;0.50;0.10;;;9.70;1.00;;;;;;5032729;28;20973;-70
2021/12/19 13:58:13;;;;;;;0.50;0.10;;;9.70;1.00;;;;;;5034046;28;20497;-69
2021/12/19 14:00:43;;;;;;;0.60;0.10;;;9.60;1.00;;;;;;5033720;28;20439;-69
2021/12/19 14:03:13;;;;;;;0.50;0.10;;;9.60;1.00;;;;;;5033759;28;20450;-70
2021/12/19 14:05:46;;;;;;;0.60;0.10;;;9.50;1.00;;;;;;5033505;28;20467;-67
2021/12/19 14:08:33;;;;;;;0.50;0.10;;;9.50;1.00;;;;;;5033534;28;20447;-68
2021/12/19 14:11:16;;;;;;;2.93;1.90;;;9.50;1.00;;;;;;5033337;28;20748;-67
2021/12/19 14:13:57;;;;;;;0.50;0.10;;;9.50;1.00;;;;;;5033215;28;20938;-69
2021/12/19 14:16:32;;;;;;;0.57;0.10;;;9.50;1.00;;;;;;5032689;28;20470;-70
2021/12/19 14:19:02;;;;;;;0.60;0.20;;;9.50;1.00;;;;;;5032564;28;20461;-69
2021/12/19 14:21:33;;;;;;;0.60;0.10;;;9.50;1.00;;;;;;5030881;28;20439;-69
2021/12/19 14:24:18;;;;;;;0.50;0.10;;;9.50;1.00;;;;;;5030965;28;20827;-69
2021/12/19 14:26:48;;;;;;;0.50;0.20;;;9.50;1.00;;;;;;5009834;28;20483;-70